Bei Facebook empfehlenBei Twitter postenGoogle plusPinterest

Das Wetter im Erzgebirge am 26.07.2016

Wetter und Klima am 26.07.2016 Holzhau im Erzgebirge (630m ü.NN)
Letzte gemessene Temperatur und Uhrzeit der Messung23:45:00 Uhr16.80 °C
Temperatur (Maximum / Höchstwert) und Uhrzeit der Messung12:45:00 Uhr26.40 °C
Temperatur (Minimum / Tiefstwert) und Uhrzeit der Messung05:00:0013.20 °C
Errechneter Absolutwert der Temperaturschwankungen zwischen Tmin und Tmax des Tages13.20 K
Errechnete Tagesmitteltemperatur19.23438 °C
Gesamt - Niederschlag des Tages (in flüssiger Form)0.51 Liter / m²
Luftdruck (Maximum / Höchstwert) und Zeitpunkt der Messung22:00:00 Uhr1018.90 hPa
Luftdruck (Minimum / Tiefstwert) und Zeitpunkt der Messung04:45:00 Uhr1016.60 hPa
Errechneter Absolutwert der Luftdruckschwankungen des Tages2.30 hPa
Höchste gemessene Windgeschwindigkeit und Uhrzeit der Messung23:45:00 Uhr0.00 km/h
Errechnete Windhäufigkeit in Relation zu den Messwerten des Tages0.00000 %
Niedrigste Windkühle (Windchill) und Zeitpunkt der Messung05:00:00 Uhr13.20 °C
Taupunkt (Maximum / Höchstwert) und Uhrzeit der Messung17:00:00 Uhr20.40 °C
Taupunkt (Minimum / Tiefstwert) und Uhrzeit der Messung04:30:0012.00 °C
Anzahl der automatisch eingelesenen Messwerte 96

Detaillierte Wetter- und Klima- Messwerte für den 26.07.2016 in Holzhau im Erzgebirge (630m ü.NN)
ZeitTemperaturLuftdruckRel. LuftfeuchteWindWindrichtungWindchillTaupunktNiederschlag l/m²
23:45:0016.80 °C1018.00 hPa90.00 %15.20 °C0.51
23:30:0016.80 °C1018.20 hPa90.00 %15.20 °C0.51
23:15:0016.90 °C1018.40 hPa89.00 %15.10 °C0.51
23:00:0016.90 °C1018.60 hPa89.00 %15.10 °C0.51
22:45:0016.90 °C1018.60 hPa88.00 %14.90 °C0.51
22:30:0016.90 °C1018.70 hPa87.00 %14.70 °C0.51
22:15:0017.20 °C1018.80 hPa86.00 %14.80 °C0.51
22:00:0017.50 °C1018.90 hPa86.00 %15.10 °C0.51
21:45:0017.90 °C1018.90 hPa85.00 %15.30 °C0.51
21:30:0018.30 °C1018.80 hPa84.00 %15.60 °C0.51
21:15:0018.90 °C1018.80 hPa83.00 %15.90 °C0.51
21:00:0019.60 °C1018.60 hPa81.00 %16.30 °C0.51
20:45:0020.10 °C1018.80 hPa80.00 %16.50 °C0.51
20:30:0020.40 °C1018.60 hPa80.00 %16.80 °C0.51
20:15:0020.70 °C1018.70 hPa78.00 %16.70 °C0.51
20:00:0021.00 °C1018.60 hPa77.00 %16.80 °C0.51
19:45:0021.80 °C1018.40 hPa75.00 %17.20 °C0.51
19:30:0022.40 °C1018.60 hPa76.00 %18.00 °C0.51
19:15:0022.10 °C1018.50 hPa75.00 %17.50 °C0.51
19:00:0022.30 °C1018.50 hPa74.00 %17.40 °C0.51
18:45:0022.90 °C1018.60 hPa74.00 %18.00 °C0.51
18:30:0022.80 °C1018.40 hPa75.00 %18.10 °C0.51
18:15:0022.50 °C1018.40 hPa76.00 %18.10 °C0.51
18:00:0022.50 °C1018.40 hPa76.00 %18.10 °C0.51
17:45:0023.20 °C1018.50 hPa75.00 %18.50 °C0.51
17:30:0023.80 °C1018.40 hPa75.00 %19.10 °C0.51
17:15:0024.20 °C1018.20 hPa76.00 %19.70 °C0.51
17:00:0024.10 °C1018.00 hPa80.00 %20.40 °C0.51
16:45:0023.40 °C1017.60 hPa80.00 %19.80 °C0.51
16:30:0023.10 °C1017.20 hPa81.00 %19.70 °C0.51
16:15:0022.40 °C1017.10 hPa83.00 %19.40 °C0.51
16:00:0021.90 °C1017.20 hPa84.00 %19.10 °C0.51
15:45:0021.50 °C1017.50 hPa85.00 %18.90 °C0.51
15:30:0020.90 °C1017.90 hPa87.00 %18.70 °C0.51
15:15:0019.90 °C1018.40 hPa87.00 %17.70 °C0.51
15:00:0019.30 °C1018.70 hPa85.00 %16.70 °C0.51
14:45:0019.80 °C1018.90 hPa81.00 %16.40 °C0.51
14:30:0021.30 °C1018.70 hPa78.00 %17.30 °C 
14:15:0022.30 °C1018.80 hPa75.00 %17.70 °C 
14:00:0023.60 °C1018.60 hPa71.00 %18.00 °C 
13:45:0025.30 °C1018.50 hPa69.00 %19.20 °C 
13:30:0025.20 °C1018.50 hPa69.00 %19.10 °C 
13:15:0024.90 °C1018.60 hPa69.00 %18.80 °C 
13:00:0026.10 °C1018.50 hPa67.00 %19.50 °C 
12:45:0026.40 °C1018.50 hPa69.00 %20.30 °C 
12:30:0025.40 °C1018.60 hPa70.00 %19.50 °C 
12:15:0025.90 °C1018.70 hPa71.00 %20.20 °C 
12:00:0025.50 °C1018.70 hPa72.00 %20.10 °C 
11:45:0025.30 °C1018.50 hPa74.00 %20.30 °C 
11:30:0024.40 °C1018.60 hPa76.00 %19.90 °C 
11:15:0023.40 °C1018.40 hPa77.00 %19.10 °C 
11:00:0023.60 °C1018.50 hPa78.00 %19.50 °C 
10:45:0023.10 °C1018.50 hPa79.00 %19.30 °C 
10:30:0022.90 °C1018.40 hPa80.00 %19.30 °C 
10:15:0022.50 °C1018.20 hPa80.00 %18.90 °C 
10:00:0022.40 °C1018.00 hPa83.00 %19.40 °C 
09:45:0021.40 °C1018.30 hPa84.00 %18.60 °C 
09:30:0021.10 °C1018.10 hPa83.00 %18.10 °C 
09:15:0021.30 °C1018.00 hPa84.00 %18.50 °C 
09:00:0021.10 °C1018.20 hPa85.00 %18.50 °C 
08:45:0020.90 °C1018.10 hPa86.00 %18.50 °C 
08:30:0020.60 °C1017.70 hPa88.00 %18.50 °C 
08:15:0020.10 °C1017.80 hPa89.00 %18.20 °C 
08:00:0019.60 °C1017.40 hPa91.00 %18.10 °C 
07:45:0018.90 °C1017.20 hPa93.00 %17.70 °C 
07:30:0017.60 °C1017.00 hPa94.00 %16.60 °C 
07:15:0015.90 °C1016.90 hPa94.00 %14.90 °C 
07:00:0014.70 °C1016.80 hPa94.00 %13.70 °C 
06:45:0014.10 °C1016.90 hPa94.00 %13.10 °C 
06:30:0013.90 °C1016.90 hPa94.00 %13.00 °C 
06:15:0013.50 °C1016.80 hPa93.00 %12.40 °C 
06:00:0013.30 °C1016.70 hPa93.00 %12.20 °C 
05:45:0013.40 °C1016.90 hPa93.00 %12.30 °C 
05:30:0013.30 °C1016.80 hPa93.00 %12.20 °C 
05:15:0013.30 °C1016.70 hPa93.00 %12.20 °C 
05:00:0013.20 °C1016.80 hPa93.00 %12.10 °C 
04:45:0013.20 °C1016.60 hPa93.00 %12.10 °C 
04:30:0013.30 °C1016.80 hPa92.00 %12.00 °C 
04:15:0013.50 °C1016.80 hPa92.00 %12.20 °C 
04:00:0013.80 °C1016.60 hPa92.00 %12.50 °C 
03:45:0013.90 °C1016.90 hPa92.00 %12.60 °C 
03:30:0013.90 °C1016.90 hPa92.00 %12.60 °C 
03:15:0014.10 °C1017.00 hPa92.00 %12.80 °C 
03:00:0014.30 °C1016.90 hPa92.00 %13.00 °C 
02:45:0014.30 °C1016.90 hPa92.00 %13.00 °C 
02:30:0014.20 °C1017.00 hPa91.00 %12.80 °C 
02:15:0014.20 °C1017.20 hPa91.00 %12.80 °C 
02:00:0014.30 °C1017.10 hPa91.00 %12.90 °C 
01:45:0014.40 °C1017.00 hPa91.00 %13.00 °C 
01:30:0014.50 °C1017.00 hPa91.00 %13.00 °C 
01:15:0014.60 °C1016.90 hPa90.00 %13.00 °C 
01:00:0014.70 °C1017.10 hPa90.00 %13.10 °C 
00:45:0014.90 °C1017.40 hPa90.00 %13.30 °C 
00:30:0015.30 °C1017.20 hPa90.00 %13.70 °C 
00:15:0015.40 °C1017.40 hPa90.00 %13.80 °C 
00:00:0015.40 °C1017.70 hPa89.00 %13.60 °C 

Permanenter Link zu dieser Seite: Wetter im Erzgebirge am 26.07.2016
Performance-Info: Die Erstellung der Seite / Statistik(en) / Tabelle(n) erforderte 5 Datenbankserver-Abfrage(n) und dauerte 104 Millisekunden. (Dieser Messwert ist von der Gesamt-Auslastung des Servers abhängig.)
Erzgebirge - Wetter | Erzgebirge - Wetter (Mobilgeräte) | Komplette Klimadatenbank